sensor_id;sensor_type;location;lat;lon;timestamp;temperature;humidity
20858;DHT22;10589;53.636;10.012;2023-02-14T04:45:08;4.60;99.90
20858;DHT22;10589;53.636;10.012;2023-02-14T04:47:34;4.60;99.90
20858;DHT22;10589;53.636;10.012;2023-02-14T04:49:59;4.60;99.90
20858;DHT22;10589;53.636;10.012;2023-02-14T04:52:25;4.60;99.90
20858;DHT22;10589;53.636;10.012;2023-02-14T04:54:50;4.60;99.90
20858;DHT22;10589;53.636;10.012;2023-02-14T04:57:16;4.60;99.90
20858;DHT22;10589;53.636;10.012;2023-02-14T04:59:42;4.60;99.90
20858;DHT22;10589;53.636;10.012;2023-02-14T05:02:07;4.60;99.90
20858;DHT22;10589;53.636;10.012;2023-02-14T05:04:33;4.60;99.90
20858;DHT22;10589;53.636;10.012;2023-02-14T05:06:58;4.70;99.90
20858;DHT22;10589;53.636;10.012;2023-02-14T05:09:24;4.70;99.90
20858;DHT22;10589;53.636;10.012;2023-02-14T05:11:50;4.70;99.90
20858;DHT22;10589;53.636;10.012;2023-02-14T05:14:15;4.70;99.90
20858;DHT22;10589;53.636;10.012;2023-02-14T05:16:41;4.70;99.90
20858;DHT22;10589;53.636;10.012;2023-02-14T05:19:07;4.70;99.90
20858;DHT22;10589;53.636;10.012;2023-02-14T05:21:32;4.70;99.90
20858;DHT22;10589;53.636;10.012;2023-02-14T05:23:59;4.70;99.90
20858;DHT22;10589;53.636;10.012;2023-02-14T05:26:25;4.70;99.90
20858;DHT22;10589;53.636;10.012;2023-02-14T05:28:51;4.70;99.90
20858;DHT22;10589;53.636;10.012;2023-02-14T05:31:16;4.70;99.90
20858;DHT22;10589;53.636;10.012;2023-02-14T05:33:42;4.70;99.90
20858;DHT22;10589;53.636;10.012;2023-02-14T05:36:09;4.70;99.90
20858;DHT22;10589;53.636;10.012;2023-02-14T05:38:35;4.70;99.90
20858;DHT22;10589;53.636;10.012;2023-02-14T05:41:01;4.70;99.90
20858;DHT22;10589;53.636;10.012;2023-02-14T05:43:27;4.70;99.90
20858;DHT22;10589;53.636;10.012;2023-02-14T05:45:52;4.70;99.90
20858;DHT22;10589;53.636;10.012;2023-02-14T05:48:19;4.70;99.90
20858;DHT22;10589;53.636;10.012;2023-02-14T05:50:44;4.70;99.90
20858;DHT22;10589;53.636;10.012;2023-02-14T05:53:11;4.70;99.90
20858;DHT22;10589;53.636;10.012;2023-02-14T05:55:37;4.70;99.90
20858;DHT22;10589;53.636;10.012;2023-02-14T05:58:02;4.70;99.90
20858;DHT22;10589;53.636;10.012;2023-02-14T06:00:28;4.70;99.90
20858;DHT22;10589;53.636;10.012;2023-02-14T06:02:54;4.70;99.90
20858;DHT22;10589;53.636;10.012;2023-02-14T06:05:20;4.70;99.90
20858;DHT22;10589;53.636;10.012;2023-02-14T06:07:48;4.70;99.90
20858;DHT22;10589;53.636;10.012;2023-02-14T06:10:23;4.70;99.90
20858;DHT22;10589;53.636;10.012;2023-02-14T06:12:50;4.70;99.90
20858;DHT22;10589;53.636;10.012;2023-02-14T06:15:17;4.70;99.90
20858;DHT22;10589;53.636;10.012;2023-02-14T06:17:42;4.70;99.90
20858;DHT22;10589;53.636;10.012;2023-02-14T06:20:09;4.60;99.90
20858;DHT22;10589;53.636;10.012;2023-02-14T06:22:36;4.60;99.90
20858;DHT22;10589;53.636;10.012;2023-02-14T06:25:03;4.70;99.90
20858;DHT22;10589;53.636;10.012;2023-02-14T06:27:29;4.70;99.90
20858;DHT22;10589;53.636;10.012;2023-02-14T06:29:55;4.70;99.90
20858;DHT22;10589;53.636;10.012;2023-02-14T06:32:21;4.70;99.90
20858;DHT22;10589;53.636;10.012;2023-02-14T06:34:47;4.70;99.90
20858;DHT22;10589;53.636;10.012;2023-02-14T06:37:12;4.70;99.90
20858;DHT22;10589;53.636;10.012;2023-02-14T06:39:38;4.70;99.90
20858;DHT22;10589;53.636;10.012;2023-02-14T06:42:04;4.70;99.90
20858;DHT22;10589;53.636;10.012;2023-02-14T06:44:30;4.70;99.90
20858;DHT22;10589;53.636;10.012;2023-02-14T06:46:55;4.70;99.90
20858;DHT22;10589;53.636;10.012;2023-02-14T06:49:21;4.70;99.90
20858;DHT22;10589;53.636;10.012;2023-02-14T06:51:46;4.70;99.90
20858;DHT22;10589;53.636;10.012;2023-02-14T06:54:12;4.70;99.90
20858;DHT22;10589;53.636;10.012;2023-02-14T06:56:38;4.70;99.90
20858;DHT22;10589;53.636;10.012;2023-02-14T06:59:03;4.70;99.90
20858;DHT22;10589;53.636;10.012;2023-02-14T07:01:30;4.80;99.90
20858;DHT22;10589;53.636;10.012;2023-02-14T07:03:55;4.80;99.90
20858;DHT22;10589;53.636;10.012;2023-02-14T07:06:21;4.80;99.90
20858;DHT22;10589;53.636;10.012;2023-02-14T07:08:46;4.80;99.90
20858;DHT22;10589;53.636;10.012;2023-02-14T07:11:12;4.80;99.90
20858;DHT22;10589;53.636;10.012;2023-02-14T07:13:37;4.80;99.90
20858;DHT22;10589;53.636;10.012;2023-02-14T07:16:03;4.80;99.90
20858;DHT22;10589;53.636;10.012;2023-02-14T07:18:30;4.90;99.90
20858;DHT22;10589;53.636;10.012;2023-02-14T07:20:55;4.90;99.90
20858;DHT22;10589;53.636;10.012;2023-02-14T07:23:21;4.90;99.90
20858;DHT22;10589;53.636;10.012;2023-02-14T07:25:47;4.90;99.90
20858;DHT22;10589;53.636;10.012;2023-02-14T07:28:12;4.90;99.90
20858;DHT22;10589;53.636;10.012;2023-02-14T07:30:39;5.00;99.90
20858;DHT22;10589;53.636;10.012;2023-02-14T07:33:04;5.00;99.90
20858;DHT22;10589;53.636;10.012;2023-02-14T07:35:30;5.10;99.90
20858;DHT22;10589;53.636;10.012;2023-02-14T07:37:56;5.10;99.90
20858;DHT22;10589;53.636;10.012;2023-02-14T07:40:22;5.00;99.90
20858;DHT22;10589;53.636;10.012;2023-02-14T07:42:53;5.10;99.90
20858;DHT22;10589;53.636;10.012;2023-02-14T07:45:20;5.10;99.90
20858;DHT22;10589;53.636;10.012;2023-02-14T07:47:47;5.20;99.90
20858;DHT22;10589;53.636;10.012;2023-02-14T07:50:13;5.20;99.90
20858;DHT22;10589;53.636;10.012;2023-02-14T07:52:39;5.20;99.90
20858;DHT22;10589;53.636;10.012;2023-02-14T07:55:05;5.30;99.90
20858;DHT22;10589;53.636;10.012;2023-02-14T07:57:33;5.40;99.90
20858;DHT22;10589;53.636;10.012;2023-02-14T08:00:00;5.40;99.90
20858;DHT22;10589;53.636;10.012;2023-02-14T08:02:26;5.40;99.90
20858;DHT22;10589;53.636;10.012;2023-02-14T08:04:51;5.40;99.90
20858;DHT22;10589;53.636;10.012;2023-02-14T08:07:17;5.50;99.90
20858;DHT22;10589;53.636;10.012;2023-02-14T08:09:43;5.50;99.90
20858;DHT22;10589;53.636;10.012;2023-02-14T08:12:09;5.60;99.90
20858;DHT22;10589;53.636;10.012;2023-02-14T08:14:53;5.70;99.90
20858;DHT22;10589;53.636;10.012;2023-02-14T08:17:19;5.70;99.90
20858;DHT22;10589;53.636;10.012;2023-02-14T08:19:44;5.70;99.90
20858;DHT22;10589;53.636;10.012;2023-02-14T08:22:10;5.80;99.90
20858;DHT22;10589;53.636;10.012;2023-02-14T08:24:36;5.90;99.90
20858;DHT22;10589;53.636;10.012;2023-02-14T08:27:01;5.90;99.90
20858;DHT22;10589;53.636;10.012;2023-02-14T08:29:27;5.90;99.90
20858;DHT22;10589;53.636;10.012;2023-02-14T08:31:52;5.90;99.90
20858;DHT22;10589;53.636;10.012;2023-02-14T08:34:19;6.00;99.90
20858;DHT22;10589;53.636;10.012;2023-02-14T08:36:45;6.10;99.90
20858;DHT22;10589;53.636;10.012;2023-02-14T08:39:11;6.10;99.90
20858;DHT22;10589;53.636;10.012;2023-02-14T08:41:37;6.10;99.90
20858;DHT22;10589;53.636;10.012;2023-02-14T08:44:03;6.10;99.90
20858;DHT22;10589;53.636;10.012;2023-02-14T08:46:28;6.10;99.90
20858;DHT22;10589;53.636;10.012;2023-02-14T08:48:54;6.10;99.90
20858;DHT22;10589;53.636;10.012;2023-02-14T08:51:21;6.10;99.90
20858;DHT22;10589;53.636;10.012;2023-02-14T08:53:49;6.10;99.90
20858;DHT22;10589;53.636;10.012;2023-02-14T08:56:15;6.10;99.90
20858;DHT22;10589;53.636;10.012;2023-02-14T08:58:40;6.10;99.90
20858;DHT22;10589;53.636;10.012;2023-02-14T09:01:10;6.10;99.90
20858;DHT22;10589;53.636;10.012;2023-02-14T09:03:37;6.10;99.90
20858;DHT22;10589;53.636;10.012;2023-02-14T09:06:07;6.10;99.90
20858;DHT22;10589;53.636;10.012;2023-02-14T09:08:33;6.20;99.90
20858;DHT22;10589;53.636;10.012;2023-02-14T09:11:09;6.30;99.90
20858;DHT22;10589;53.636;10.012;2023-02-14T09:13:35;6.40;99.90
20858;DHT22;10589;53.636;10.012;2023-02-14T09:16:06;6.50;99.90
20858;DHT22;10589;53.636;10.012;2023-02-14T09:18:32;6.60;99.90
20858;DHT22;10589;53.636;10.012;2023-02-14T09:20:57;6.70;99.90
20858;DHT22;10589;53.636;10.012;2023-02-14T09:23:23;6.80;99.90
20858;DHT22;10589;53.636;10.012;2023-02-14T09:25:49;6.90;99.90
20858;DHT22;10589;53.636;10.012;2023-02-14T09:28:14;6.90;99.90
20858;DHT22;10589;53.636;10.012;2023-02-14T09:30:40;6.90;99.90
20858;DHT22;10589;53.636;10.012;2023-02-14T09:33:05;6.90;99.90
20858;DHT22;10589;53.636;10.012;2023-02-14T09:35:32;7.00;99.90
20858;DHT22;10589;53.636;10.012;2023-02-14T09:38:16;7.20;99.90
20858;DHT22;10589;53.636;10.012;2023-02-14T09:40:45;7.10;99.90
20858;DHT22;10589;53.636;10.012;2023-02-14T09:45:53;7.30;99.90
20858;DHT22;10589;53.636;10.012;2023-02-14T09:48:32;7.40;99.90
20858;DHT22;10589;53.636;10.012;2023-02-14T09:51:10;7.40;99.90
20858;DHT22;10589;53.636;10.012;2023-02-14T09:53:44;7.60;99.90
20858;DHT22;10589;53.636;10.012;2023-02-14T09:56:24;7.60;99.90
20858;DHT22;10589;53.636;10.012;2023-02-14T10:01:31;7.60;99.90
20858;DHT22;10589;53.636;10.012;2023-02-14T10:11:45;7.90;99.90
20858;DHT22;10589;53.636;10.012;2023-02-14T10:14:24;7.90;99.90
20858;DHT22;10589;53.636;10.012;2023-02-14T10:16:58;8.00;99.90
20858;DHT22;10589;53.636;10.012;2023-02-14T10:19:52;8.10;99.90
20858;DHT22;10589;53.636;10.012;2023-02-14T10:22:25;8.10;99.90
20858;DHT22;10589;53.636;10.012;2023-02-14T10:25:02;8.20;99.90
20858;DHT22;10589;53.636;10.012;2023-02-14T10:27:36;8.20;99.90
20858;DHT22;10589;53.636;10.012;2023-02-14T10:30:14;8.30;99.90
20858;DHT22;10589;53.636;10.012;2023-02-14T10:33:00;8.20;99.90
20858;DHT22;10589;53.636;10.012;2023-02-14T10:38:13;8.50;99.90
20858;DHT22;10589;53.636;10.012;2023-02-14T10:43:33;8.90;99.90
20858;DHT22;10589;53.636;10.012;2023-02-14T10:46:23;9.00;99.90
20858;DHT22;10589;53.636;10.012;2023-02-14T10:52:20;8.90;99.90
20858;DHT22;10589;53.636;10.012;2023-02-14T10:55:26;9.10;99.90
20858;DHT22;10589;53.636;10.012;2023-02-14T10:57:54;9.20;99.90
20858;DHT22;10589;53.636;10.012;2023-02-14T11:00:24;9.30;99.90
20858;DHT22;10589;53.636;10.012;2023-02-14T11:02:57;9.40;99.90
20858;DHT22;10589;53.636;10.012;2023-02-14T11:05:40;9.40;99.90
20858;DHT22;10589;53.636;10.012;2023-02-14T11:08:14;9.30;99.90
20858;DHT22;10589;53.636;10.012;2023-02-14T11:10:40;9.40;99.90
20858;DHT22;10589;53.636;10.012;2023-02-14T11:13:26;9.50;99.90
20858;DHT22;10589;53.636;10.012;2023-02-14T11:15:52;9.50;99.90
20858;DHT22;10589;53.636;10.012;2023-02-14T11:18:22;9.60;99.90
20858;DHT22;10589;53.636;10.012;2023-02-14T11:21:12;9.80;99.90
20858;DHT22;10589;53.636;10.012;2023-02-14T11:23:46;9.80;99.90
20858;DHT22;10589;53.636;10.012;2023-02-14T11:26:33;9.80;99.90
20858;DHT22;10589;53.636;10.012;2023-02-14T11:29:01;10.00;99.90
20858;DHT22;10589;53.636;10.012;2023-02-14T11:31:33;10.00;99.90
20858;DHT22;10589;53.636;10.012;2023-02-14T11:34:03;10.20;99.90
20858;DHT22;10589;53.636;10.012;2023-02-14T11:36:30;10.30;99.90
20858;DHT22;10589;53.636;10.012;2023-02-14T11:39:04;10.30;99.90
20858;DHT22;10589;53.636;10.012;2023-02-14T11:41:49;10.40;99.90
20858;DHT22;10589;53.636;10.012;2023-02-14T11:44:23;10.40;99.90
20858;DHT22;10589;53.636;10.012;2023-02-14T11:46:54;10.10;99.90
20858;DHT22;10589;53.636;10.012;2023-02-14T11:49:24;10.20;99.90
20858;DHT22;10589;53.636;10.012;2023-02-14T11:51:53;10.20;99.90
20858;DHT22;10589;53.636;10.012;2023-02-14T11:54:39;10.20;99.90
20858;DHT22;10589;53.636;10.012;2023-02-14T11:57:12;10.30;99.90
20858;DHT22;10589;53.636;10.012;2023-02-14T11:59:48;10.40;99.90
20858;DHT22;10589;53.636;10.012;2023-02-14T12:02:30;10.40;99.90
20858;DHT22;10589;53.636;10.012;2023-02-14T12:07:53;10.30;99.90
20858;DHT22;10589;53.636;10.012;2023-02-14T12:10:29;10.40;99.90
20858;DHT22;10589;53.636;10.012;2023-02-14T12:13:18;10.20;99.90
20858;DHT22;10589;53.636;10.012;2023-02-14T12:15:51;10.10;99.90
20858;DHT22;10589;53.636;10.012;2023-02-14T12:26:28;10.40;99.90
20858;DHT22;10589;53.636;10.012;2023-02-14T12:29:19;10.30;99.90
20858;DHT22;10589;53.636;10.012;2023-02-14T12:31:47;10.40;99.90
20858;DHT22;10589;53.636;10.012;2023-02-14T12:34:15;10.40;99.90
20858;DHT22;10589;53.636;10.012;2023-02-14T12:45:22;11.00;99.90
20858;DHT22;10589;53.636;10.012;2023-02-14T12:53:46;11.20;99.90
20858;DHT22;10589;53.636;10.012;2023-02-14T13:06:56;11.10;99.90
20858;DHT22;10589;53.636;10.012;2023-02-14T13:09:44;11.10;99.90
20858;DHT22;10589;53.636;10.012;2023-02-14T13:12:33;11.10;99.90
20858;DHT22;10589;53.636;10.012;2023-02-14T13:15:18;11.20;99.90
20858;DHT22;10589;53.636;10.012;2023-02-14T13:17:53;11.30;99.90
20858;DHT22;10589;53.636;10.012;2023-02-14T13:23:38;11.30;99.90
20858;DHT22;10589;53.636;10.012;2023-02-14T13:26:15;11.30;99.90
20858;DHT22;10589;53.636;10.012;2023-02-14T13:29:03;11.30;99.90
20858;DHT22;10589;53.636;10.012;2023-02-14T13:31:30;11.30;99.90
20858;DHT22;10589;53.636;10.012;2023-02-14T13:34:28;11.30;99.90
20858;DHT22;10589;53.636;10.012;2023-02-14T13:36:57;11.20;99.90
20858;DHT22;10589;53.636;10.012;2023-02-14T13:41:51;12.30;99.90
20858;DHT22;10589;53.636;10.012;2023-02-14T13:44:43;13.50;99.90
20858;DHT22;10589;53.636;10.012;2023-02-14T13:47:17;14.80;99.90
20858;DHT22;10589;53.636;10.012;2023-02-14T13:50:02;15.20;99.90
20858;DHT22;10589;53.636;10.012;2023-02-14T13:52:40;15.20;99.90
20858;DHT22;10589;53.636;10.012;2023-02-14T13:55:12;15.40;99.90
20858;DHT22;10589;53.636;10.012;2023-02-14T13:57:38;15.90;99.90
20858;DHT22;10589;53.636;10.012;2023-02-14T14:10:54;16.50;99.90
20858;DHT22;10589;53.636;10.012;2023-02-14T14:21:27;17.10;99.90
20858;DHT22;10589;53.636;10.012;2023-02-14T14:24:22;16.50;99.90
20858;DHT22;10589;53.636;10.012;2023-02-14T14:27:05;17.20;99.90
20858;DHT22;10589;53.636;10.012;2023-02-14T14:32:35;18.20;99.90
20858;DHT22;10589;53.636;10.012;2023-02-14T14:35:06;18.40;99.90
20858;DHT22;10589;53.636;10.012;2023-02-14T14:37:51;18.00;99.90
20858;DHT22;10589;53.636;10.012;2023-02-14T14:40:29;17.00;99.90
20858;DHT22;10589;53.636;10.012;2023-02-14T14:43:12;16.20;99.90
20858;DHT22;10589;53.636;10.012;2023-02-14T14:45:38;15.90;99.90
20858;DHT22;10589;53.636;10.012;2023-02-14T14:48:16;15.30;99.90
20858;DHT22;10589;53.636;10.012;2023-02-14T14:50:45;15.00;99.90
20858;DHT22;10589;53.636;10.012;2023-02-14T14:53:23;14.50;99.90
20858;DHT22;10589;53.636;10.012;2023-02-14T14:55:50;14.00;99.90
20858;DHT22;10589;53.636;10.012;2023-02-14T14:58:42;13.80;99.90
20858;DHT22;10589;53.636;10.012;2023-02-14T15:01:13;13.40;99.90
20858;DHT22;10589;53.636;10.012;2023-02-14T15:03:51;12.90;99.90
20858;DHT22;10589;53.636;10.012;2023-02-14T15:06:19;12.30;99.90
20858;DHT22;10589;53.636;10.012;2023-02-14T15:08:47;12.00;99.90
20858;DHT22;10589;53.636;10.012;2023-02-14T15:11:23;11.70;99.90
20858;DHT22;10589;53.636;10.012;2023-02-14T15:14:22;11.60;99.90
20858;DHT22;10589;53.636;10.012;2023-02-14T15:16:53;11.30;99.90
20858;DHT22;10589;53.636;10.012;2023-02-14T15:19:29;11.10;99.90
20858;DHT22;10589;53.636;10.012;2023-02-14T15:24:51;10.90;99.90
20858;DHT22;10589;53.636;10.012;2023-02-14T15:27:22;10.80;99.90
20858;DHT22;10589;53.636;10.012;2023-02-14T15:30:01;10.70;99.90
20858;DHT22;10589;53.636;10.012;2023-02-14T15:32:30;10.80;99.90
20858;DHT22;10589;53.636;10.012;2023-02-14T15:34:57;10.60;99.90
20858;DHT22;10589;53.636;10.012;2023-02-14T15:37:24;10.50;99.90
20858;DHT22;10589;53.636;10.012;2023-02-14T15:39:52;10.40;99.90
20858;DHT22;10589;53.636;10.012;2023-02-14T15:45:16;10.20;99.90
20858;DHT22;10589;53.636;10.012;2023-02-14T15:47:50;10.20;99.90
20858;DHT22;10589;53.636;10.012;2023-02-14T15:50:19;10.10;99.90
20858;DHT22;10589;53.636;10.012;2023-02-14T15:52:47;10.00;99.90
20858;DHT22;10589;53.636;10.012;2023-02-14T15:55:17;10.00;99.90
20858;DHT22;10589;53.636;10.012;2023-02-14T15:57:50;9.80;99.90
20858;DHT22;10589;53.636;10.012;2023-02-14T16:00:19;9.70;99.90
20858;DHT22;10589;53.636;10.012;2023-02-14T16:02:59;9.70;99.90
20858;DHT22;10589;53.636;10.012;2023-02-14T16:05:27;9.50;99.90
20858;DHT22;10589;53.636;10.012;2023-02-14T16:08:05;9.50;99.90
20858;DHT22;10589;53.636;10.012;2023-02-14T16:10:32;9.40;99.90
20858;DHT22;10589;53.636;10.012;2023-02-14T16:15:58;9.20;99.90
20858;DHT22;10589;53.636;10.012;2023-02-14T16:18:42;9.10;99.90
20858;DHT22;10589;53.636;10.012;2023-02-14T16:23:37;8.90;99.90
20858;DHT22;10589;53.636;10.012;2023-02-14T16:26:04;8.80;99.90
20858;DHT22;10589;53.636;10.012;2023-02-14T16:28:31;8.70;99.90
20858;DHT22;10589;53.636;10.012;2023-02-14T16:30:58;8.70;99.90
20858;DHT22;10589;53.636;10.012;2023-02-14T16:33:31;8.60;99.90
20858;DHT22;10589;53.636;10.012;2023-02-14T16:36:04;8.50;99.90
20858;DHT22;10589;53.636;10.012;2023-02-14T16:38:34;8.40;99.90
20858;DHT22;10589;53.636;10.012;2023-02-14T16:41:01;8.40;99.90
20858;DHT22;10589;53.636;10.012;2023-02-14T16:43:27;8.30;99.90
20858;DHT22;10589;53.636;10.012;2023-02-14T16:45:53;8.30;99.90
20858;DHT22;10589;53.636;10.012;2023-02-14T16:48:18;8.20;99.90
20858;DHT22;10589;53.636;10.012;2023-02-14T16:50:45;8.20;99.90
20858;DHT22;10589;53.636;10.012;2023-02-14T16:53:18;8.10;99.90
20858;DHT22;10589;53.636;10.012;2023-02-14T16:55:46;8.00;99.90
20858;DHT22;10589;53.636;10.012;2023-02-14T16:58:13;8.00;99.90
20858;DHT22;10589;53.636;10.012;2023-02-14T17:00:39;7.90;99.90
20858;DHT22;10589;53.636;10.012;2023-02-14T17:03:04;7.80;99.90
20858;DHT22;10589;53.636;10.012;2023-02-14T17:05:36;7.80;99.90
20858;DHT22;10589;53.636;10.012;2023-02-14T17:08:03;7.70;99.90
20858;DHT22;10589;53.636;10.012;2023-02-14T17:10:30;7.70;99.90
20858;DHT22;10589;53.636;10.012;2023-02-14T17:12:59;7.70;99.90
20858;DHT22;10589;53.636;10.012;2023-02-14T17:15:26;7.60;99.90
20858;DHT22;10589;53.636;10.012;2023-02-14T17:18:01;7.50;99.90
20858;DHT22;10589;53.636;10.012;2023-02-14T17:20:29;7.50;99.90
20858;DHT22;10589;53.636;10.012;2023-02-14T17:22:55;7.40;99.90
20858;DHT22;10589;53.636;10.012;2023-02-14T17:25:21;7.40;99.90
20858;DHT22;10589;53.636;10.012;2023-02-14T17:27:46;7.30;99.90
20858;DHT22;10589;53.636;10.012;2023-02-14T17:30:13;7.20;99.90
20858;DHT22;10589;53.636;10.012;2023-02-14T17:32:39;7.20;99.90
20858;DHT22;10589;53.636;10.012;2023-02-14T17:35:05;7.20;99.90
20858;DHT22;10589;53.636;10.012;2023-02-14T17:37:33;7.10;99.90
20858;DHT22;10589;53.636;10.012;2023-02-14T17:39:59;7.00;99.90
20858;DHT22;10589;53.636;10.012;2023-02-14T17:42:25;7.00;99.90
20858;DHT22;10589;53.636;10.012;2023-02-14T17:44:50;7.00;99.90
20858;DHT22;10589;53.636;10.012;2023-02-14T17:47:16;7.10;99.90
20858;DHT22;10589;53.636;10.012;2023-02-14T17:49:43;7.00;99.90
20858;DHT22;10589;53.636;10.012;2023-02-14T17:52:12;7.00;99.90
20858;DHT22;10589;53.636;10.012;2023-02-14T17:54:38;7.00;99.90
20858;DHT22;10589;53.636;10.012;2023-02-14T17:57:03;6.90;99.90
20858;DHT22;10589;53.636;10.012;2023-02-14T17:59:30;6.80;99.90
20858;DHT22;10589;53.636;10.012;2023-02-14T18:01:56;6.70;99.90
20858;DHT22;10589;53.636;10.012;2023-02-14T18:04:22;6.70;99.90
20858;DHT22;10589;53.636;10.012;2023-02-14T18:06:48;6.60;99.90
20858;DHT22;10589;53.636;10.012;2023-02-14T18:09:13;6.50;99.90
20858;DHT22;10589;53.636;10.012;2023-02-14T18:11:39;6.50;99.90
20858;DHT22;10589;53.636;10.012;2023-02-14T18:14:07;6.40;99.90
20858;DHT22;10589;53.636;10.012;2023-02-14T18:16:35;6.40;99.90
20858;DHT22;10589;53.636;10.012;2023-02-14T18:19:01;6.40;99.90
20858;DHT22;10589;53.636;10.012;2023-02-14T18:21:34;6.40;99.90
20858;DHT22;10589;53.636;10.012;2023-02-14T18:24:03;6.40;99.90
20858;DHT22;10589;53.636;10.012;2023-02-14T18:26:29;6.30;99.90
20858;DHT22;10589;53.636;10.012;2023-02-14T18:28:55;6.30;99.90
20858;DHT22;10589;53.636;10.012;2023-02-14T18:31:21;6.20;99.90
20858;DHT22;10589;53.636;10.012;2023-02-14T18:33:48;6.20;99.90
20858;DHT22;10589;53.636;10.012;2023-02-14T18:36:17;6.10;99.90
20858;DHT22;10589;53.636;10.012;2023-02-14T18:38:46;6.00;99.90
20858;DHT22;10589;53.636;10.012;2023-02-14T18:41:14;5.90;99.90
20858;DHT22;10589;53.636;10.012;2023-02-14T18:43:40;5.80;99.90
20858;DHT22;10589;53.636;10.012;2023-02-14T18:46:09;5.70;99.90
20858;DHT22;10589;53.636;10.012;2023-02-14T18:48:35;5.60;99.90
20858;DHT22;10589;53.636;10.012;2023-02-14T18:51:09;5.50;99.90
20858;DHT22;10589;53.636;10.012;2023-02-14T18:53:36;5.40;99.90
20858;DHT22;10589;53.636;10.012;2023-02-14T18:56:06;5.40;99.90
20858;DHT22;10589;53.636;10.012;2023-02-14T18:58:33;5.40;99.90
20858;DHT22;10589;53.636;10.012;2023-02-14T19:01:07;5.40;99.90
20858;DHT22;10589;53.636;10.012;2023-02-14T19:03:32;5.50;99.90
20858;DHT22;10589;53.636;10.012;2023-02-14T19:05:59;5.50;99.90
20858;DHT22;10589;53.636;10.012;2023-02-14T19:08:24;5.50;99.90
20858;DHT22;10589;53.636;10.012;2023-02-14T19:10:50;5.50;99.90
20858;DHT22;10589;53.636;10.012;2023-02-14T19:13:16;5.50;99.90
20858;DHT22;10589;53.636;10.012;2023-02-14T19:15:42;5.60;99.90
20858;DHT22;10589;53.636;10.012;2023-02-14T19:18:07;5.60;99.90
20858;DHT22;10589;53.636;10.012;2023-02-14T19:20:34;5.70;99.90
20858;DHT22;10589;53.636;10.012;2023-02-14T19:22:59;5.70;99.90
20858;DHT22;10589;53.636;10.012;2023-02-14T19:25:26;5.80;99.90
20858;DHT22;10589;53.636;10.012;2023-02-14T19:27:53;5.80;99.90
20858;DHT22;10589;53.636;10.012;2023-02-14T19:30:19;5.70;99.90
20858;DHT22;10589;53.636;10.012;2023-02-14T19:32:45;5.90;99.90
20858;DHT22;10589;53.636;10.012;2023-02-14T19:35:10;5.80;99.90
20858;DHT22;10589;53.636;10.012;2023-02-14T19:37:36;6.00;99.90
20858;DHT22;10589;53.636;10.012;2023-02-14T19:40:02;6.00;99.90
20858;DHT22;10589;53.636;10.012;2023-02-14T19:42:28;6.00;99.90
20858;DHT22;10589;53.636;10.012;2023-02-14T19:44:53;5.90;99.90
20858;DHT22;10589;53.636;10.012;2023-02-14T19:47:19;6.00;99.90
20858;DHT22;10589;53.636;10.012;2023-02-14T19:49:45;6.20;99.90
20858;DHT22;10589;53.636;10.012;2023-02-14T19:52:14;6.00;99.90
20858;DHT22;10589;53.636;10.012;2023-02-14T19:54:41;5.90;99.90
20858;DHT22;10589;53.636;10.012;2023-02-14T19:57:11;5.80;99.90
20858;DHT22;10589;53.636;10.012;2023-02-14T19:59:37;5.80;99.90
20858;DHT22;10589;53.636;10.012;2023-02-14T20:02:03;5.90;99.90
20858;DHT22;10589;53.636;10.012;2023-02-14T20:04:29;5.80;99.90
20858;DHT22;10589;53.636;10.012;2023-02-14T20:06:55;5.80;99.90
20858;DHT22;10589;53.636;10.012;2023-02-14T20:09:22;5.70;99.90
20858;DHT22;10589;53.636;10.012;2023-02-14T20:11:50;5.70;99.90
20858;DHT22;10589;53.636;10.012;2023-02-14T20:14:28;5.80;99.90
20858;DHT22;10589;53.636;10.012;2023-02-14T20:16:55;5.70;99.90
20858;DHT22;10589;53.636;10.012;2023-02-14T20:19:24;5.70;99.90
20858;DHT22;10589;53.636;10.012;2023-02-14T20:21:54;5.60;99.90
20858;DHT22;10589;53.636;10.012;2023-02-14T20:24:25;5.40;99.90
20858;DHT22;10589;53.636;10.012;2023-02-14T20:26:52;5.40;99.90
20858;DHT22;10589;53.636;10.012;2023-02-14T20:29:19;5.30;99.90
20858;DHT22;10589;53.636;10.012;2023-02-14T20:31:48;5.20;99.90
20858;DHT22;10589;53.636;10.012;2023-02-14T20:34:14;5.10;99.90
20858;DHT22;10589;53.636;10.012;2023-02-14T20:36:42;5.10;99.90
20858;DHT22;10589;53.636;10.012;2023-02-14T20:39:11;5.10;99.90
20858;DHT22;10589;53.636;10.012;2023-02-14T20:41:37;5.00;99.90
20858;DHT22;10589;53.636;10.012;2023-02-14T20:44:08;4.90;99.90
20858;DHT22;10589;53.636;10.012;2023-02-14T20:46:34;5.00;99.90
20858;DHT22;10589;53.636;10.012;2023-02-14T20:49:00;4.90;99.90
20858;DHT22;10589;53.636;10.012;2023-02-14T20:51:26;4.80;99.90
20858;DHT22;10589;53.636;10.012;2023-02-14T20:53:53;4.70;99.90
20858;DHT22;10589;53.636;10.012;2023-02-14T20:56:19;4.70;99.90
20858;DHT22;10589;53.636;10.012;2023-02-14T20:58:45;4.60;99.90
20858;DHT22;10589;53.636;10.012;2023-02-14T21:01:12;4.50;99.90
20858;DHT22;10589;53.636;10.012;2023-02-14T21:03:39;4.50;99.90
20858;DHT22;10589;53.636;10.012;2023-02-14T21:06:07;4.40;99.90
20858;DHT22;10589;53.636;10.012;2023-02-14T21:08:35;4.40;99.90
20858;DHT22;10589;53.636;10.012;2023-02-14T21:11:02;4.30;99.90
20858;DHT22;10589;53.636;10.012;2023-02-14T21:13:27;4.30;99.90
20858;DHT22;10589;53.636;10.012;2023-02-14T21:15:53;4.30;99.90
20858;DHT22;10589;53.636;10.012;2023-02-14T21:18:18;4.30;99.90
20858;DHT22;10589;53.636;10.012;2023-02-14T21:20:44;4.20;99.90
20858;DHT22;10589;53.636;10.012;2023-02-14T21:23:10;4.20;99.90
20858;DHT22;10589;53.636;10.012;2023-02-14T21:25:36;4.10;99.90
20858;DHT22;10589;53.636;10.012;2023-02-14T21:28:01;4.10;99.90
20858;DHT22;10589;53.636;10.012;2023-02-14T21:30:27;4.00;99.90
20858;DHT22;10589;53.636;10.012;2023-02-14T21:32:56;4.00;99.90
20858;DHT22;10589;53.636;10.012;2023-02-14T21:35:21;4.00;99.90
20858;DHT22;10589;53.636;10.012;2023-02-14T21:37:47;3.90;99.90
20858;DHT22;10589;53.636;10.012;2023-02-14T21:40:13;3.90;99.90
20858;DHT22;10589;53.636;10.012;2023-02-14T21:42:39;3.80;99.90
20858;DHT22;10589;53.636;10.012;2023-02-14T21:45:04;3.80;99.90
20858;DHT22;10589;53.636;10.012;2023-02-14T21:47:49;3.70;99.90
20858;DHT22;10589;53.636;10.012;2023-02-14T21:50:36;3.70;99.90
20858;DHT22;10589;53.636;10.012;2023-02-14T21:53:02;3.60;99.90
20858;DHT22;10589;53.636;10.012;2023-02-14T21:55:27;3.50;99.90
20858;DHT22;10589;53.636;10.012;2023-02-14T21:57:53;3.40;99.90
20858;DHT22;10589;53.636;10.012;2023-02-14T22:00:19;3.30;99.90
20858;DHT22;10589;53.636;10.012;2023-02-14T22:02:46;3.30;99.90